sensor_id;sensor_type;location;lat;lon;timestamp;P1;durP1;ratioP1;P2;durP2;ratioP2
7961;SDS011;4026;43.652;24.906;2022-09-27T00:01:42;2.93;;;2.10;;
7961;SDS011;4026;43.652;24.906;2022-09-27T00:04:10;2.30;;;1.70;;
7961;SDS011;4026;43.652;24.906;2022-09-27T00:06:37;3.57;;;2.13;;
7961;SDS011;4026;43.652;24.906;2022-09-27T00:09:03;3.20;;;2.23;;
7961;SDS011;4026;43.652;24.906;2022-09-27T00:11:31;3.20;;;2.17;;
7961;SDS011;4026;43.652;24.906;2022-09-27T00:14:00;2.67;;;2.07;;
7961;SDS011;4026;43.652;24.906;2022-09-27T00:16:28;3.83;;;2.37;;
7961;SDS011;4026;43.652;24.906;2022-09-27T00:18:58;3.00;;;2.20;;
7961;SDS011;4026;43.652;24.906;2022-09-27T00:21:26;2.90;;;2.37;;
7961;SDS011;4026;43.652;24.906;2022-09-27T00:23:54;2.80;;;2.17;;
7961;SDS011;4026;43.652;24.906;2022-09-27T00:26:22;3.67;;;2.13;;
7961;SDS011;4026;43.652;24.906;2022-09-27T00:28:49;3.33;;;2.00;;
7961;SDS011;4026;43.652;24.906;2022-09-27T00:31:17;2.40;;;1.77;;
7961;SDS011;4026;43.652;24.906;2022-09-27T00:33:46;2.60;;;2.07;;
7961;SDS011;4026;43.652;24.906;2022-09-27T00:36:15;3.73;;;1.63;;
7961;SDS011;4026;43.652;24.906;2022-09-27T00:38:42;1.40;;;1.30;;
7961;SDS011;4026;43.652;24.906;2022-09-27T00:41:11;2.00;;;1.20;;
7961;SDS011;4026;43.652;24.906;2022-09-27T00:43:44;2.13;;;1.33;;
7961;SDS011;4026;43.652;24.906;2022-09-27T00:46:14;2.17;;;1.53;;
7961;SDS011;4026;43.652;24.906;2022-09-27T00:48:45;1.50;;;1.23;;
7961;SDS011;4026;43.652;24.906;2022-09-27T00:51:14;1.97;;;1.57;;
7961;SDS011;4026;43.652;24.906;2022-09-27T00:53:42;1.73;;;1.47;;
7961;SDS011;4026;43.652;24.906;2022-09-27T00:56:16;1.00;;;0.90;;
7961;SDS011;4026;43.652;24.906;2022-09-27T00:58:49;1.80;;;1.40;;
7961;SDS011;4026;43.652;24.906;2022-09-27T01:01:20;2.13;;;1.30;;
7961;SDS011;4026;43.652;24.906;2022-09-27T01:03:48;1.57;;;1.20;;
7961;SDS011;4026;43.652;24.906;2022-09-27T01:06:22;2.03;;;1.60;;
7961;SDS011;4026;43.652;24.906;2022-09-27T01:08:49;1.47;;;1.03;;
7961;SDS011;4026;43.652;24.906;2022-09-27T01:11:22;2.33;;;1.30;;
7961;SDS011;4026;43.652;24.906;2022-09-27T01:14:02;1.33;;;1.23;;
7961;SDS011;4026;43.652;24.906;2022-09-27T01:16:39;1.70;;;1.60;;
7961;SDS011;4026;43.652;24.906;2022-09-27T01:19:16;1.60;;;1.37;;
7961;SDS011;4026;43.652;24.906;2022-09-27T01:22:09;1.07;;;0.97;;
7961;SDS011;4026;43.652;24.906;2022-09-27T01:24:48;0.90;;;0.70;;
7961;SDS011;4026;43.652;24.906;2022-09-27T01:30:27;1.40;;;1.20;;
7961;SDS011;4026;43.652;24.906;2022-09-27T01:33:14;1.20;;;1.00;;
7961;SDS011;4026;43.652;24.906;2022-09-27T01:36:01;1.43;;;1.17;;
7961;SDS011;4026;43.652;24.906;2022-09-27T01:38:44;0.90;;;0.73;;
7961;SDS011;4026;43.652;24.906;2022-09-27T01:41:24;1.00;;;0.90;;
7961;SDS011;4026;43.652;24.906;2022-09-27T01:43:58;1.40;;;1.30;;
7961;SDS011;4026;43.652;24.906;2022-09-27T01:46:30;1.67;;;1.10;;
7961;SDS011;4026;43.652;24.906;2022-09-27T01:49:01;1.47;;;1.10;;
7961;SDS011;4026;43.652;24.906;2022-09-27T01:51:35;1.83;;;1.20;;
7961;SDS011;4026;43.652;24.906;2022-09-27T01:54:07;1.40;;;1.30;;
7961;SDS011;4026;43.652;24.906;2022-09-27T01:56:41;0.97;;;0.87;;
7961;SDS011;4026;43.652;24.906;2022-09-27T01:59:13;1.30;;;1.20;;
7961;SDS011;4026;43.652;24.906;2022-09-27T02:01:45;1.60;;;1.20;;
7961;SDS011;4026;43.652;24.906;2022-09-27T02:04:16;1.57;;;0.90;;
7961;SDS011;4026;43.652;24.906;2022-09-27T02:06:47;2.07;;;0.93;;
7961;SDS011;4026;43.652;24.906;2022-09-27T02:09:19;1.47;;;0.80;;
7961;SDS011;4026;43.652;24.906;2022-09-27T02:11:49;1.23;;;1.13;;
7961;SDS011;4026;43.652;24.906;2022-09-27T02:14:21;0.97;;;0.97;;
7961;SDS011;4026;43.652;24.906;2022-09-27T02:16:53;1.10;;;1.00;;
7961;SDS011;4026;43.652;24.906;2022-09-27T02:19:28;1.87;;;1.40;;
7961;SDS011;4026;43.652;24.906;2022-09-27T02:22:06;1.47;;;1.00;;
7961;SDS011;4026;43.652;24.906;2022-09-27T02:24:41;1.63;;;1.17;;
7961;SDS011;4026;43.652;24.906;2022-09-27T02:27:13;1.60;;;1.30;;
7961;SDS011;4026;43.652;24.906;2022-09-27T02:29:47;1.00;;;0.90;;
7961;SDS011;4026;43.652;24.906;2022-09-27T02:32:19;1.50;;;1.20;;
7961;SDS011;4026;43.652;24.906;2022-09-27T02:34:47;1.07;;;1.03;;
7961;SDS011;4026;43.652;24.906;2022-09-27T02:37:16;1.60;;;1.00;;
7961;SDS011;4026;43.652;24.906;2022-09-27T02:39:43;1.03;;;0.93;;
7961;SDS011;4026;43.652;24.906;2022-09-27T02:42:10;2.10;;;1.57;;
7961;SDS011;4026;43.652;24.906;2022-09-27T02:44:38;1.03;;;0.93;;
7961;SDS011;4026;43.652;24.906;2022-09-27T02:47:15;1.30;;;1.00;;
7961;SDS011;4026;43.652;24.906;2022-09-27T02:49:59;1.70;;;1.30;;
7961;SDS011;4026;43.652;24.906;2022-09-27T02:52:37;1.47;;;1.17;;
7961;SDS011;4026;43.652;24.906;2022-09-27T02:55:18;0.80;;;0.80;;
7961;SDS011;4026;43.652;24.906;2022-09-27T02:57:56;1.20;;;1.10;;
7961;SDS011;4026;43.652;24.906;2022-09-27T03:00:38;1.17;;;1.00;;
7961;SDS011;4026;43.652;24.906;2022-09-27T03:03:15;1.10;;;1.00;;
7961;SDS011;4026;43.652;24.906;2022-09-27T03:05:48;1.40;;;1.30;;
7961;SDS011;4026;43.652;24.906;2022-09-27T03:08:19;1.30;;;1.00;;
7961;SDS011;4026;43.652;24.906;2022-09-27T03:10:46;1.63;;;1.00;;
7961;SDS011;4026;43.652;24.906;2022-09-27T03:13:13;0.83;;;0.83;;
7961;SDS011;4026;43.652;24.906;2022-09-27T03:15:40;1.20;;;1.10;;
7961;SDS011;4026;43.652;24.906;2022-09-27T03:18:07;1.70;;;1.00;;
7961;SDS011;4026;43.652;24.906;2022-09-27T03:20:35;0.70;;;0.70;;
7961;SDS011;4026;43.652;24.906;2022-09-27T03:23:02;1.20;;;0.77;;
7961;SDS011;4026;43.652;24.906;2022-09-27T03:25:29;1.27;;;1.00;;
7961;SDS011;4026;43.652;24.906;2022-09-27T03:27:56;0.93;;;0.83;;
7961;SDS011;4026;43.652;24.906;2022-09-27T03:30:23;0.77;;;0.77;;
7961;SDS011;4026;43.652;24.906;2022-09-27T03:32:49;0.87;;;0.87;;
7961;SDS011;4026;43.652;24.906;2022-09-27T03:35:16;1.33;;;0.97;;
7961;SDS011;4026;43.652;24.906;2022-09-27T03:37:44;1.23;;;1.07;;
7961;SDS011;4026;43.652;24.906;2022-09-27T03:40:12;0.83;;;0.83;;
7961;SDS011;4026;43.652;24.906;2022-09-27T03:42:39;1.40;;;1.30;;
7961;SDS011;4026;43.652;24.906;2022-09-27T03:45:06;1.20;;;1.10;;
7961;SDS011;4026;43.652;24.906;2022-09-27T03:47:33;0.80;;;0.80;;
7961;SDS011;4026;43.652;24.906;2022-09-27T03:50:00;0.70;;;0.60;;
7961;SDS011;4026;43.652;24.906;2022-09-27T03:52:27;1.20;;;1.00;;
7961;SDS011;4026;43.652;24.906;2022-09-27T03:54:55;1.30;;;1.07;;
7961;SDS011;4026;43.652;24.906;2022-09-27T03:57:22;1.40;;;1.07;;
7961;SDS011;4026;43.652;24.906;2022-09-27T03:59:49;1.23;;;1.13;;
7961;SDS011;4026;43.652;24.906;2022-09-27T04:02:16;0.80;;;0.77;;
7961;SDS011;4026;43.652;24.906;2022-09-27T04:04:43;1.37;;;1.20;;
7961;SDS011;4026;43.652;24.906;2022-09-27T04:07:10;0.77;;;0.70;;
7961;SDS011;4026;43.652;24.906;2022-09-27T04:09:37;1.07;;;0.97;;
7961;SDS011;4026;43.652;24.906;2022-09-27T04:12:07;2.40;;;1.00;;
7961;SDS011;4026;43.652;24.906;2022-09-27T04:14:34;1.57;;;1.00;;
7961;SDS011;4026;43.652;24.906;2022-09-27T04:17:01;1.77;;;1.10;;
7961;SDS011;4026;43.652;24.906;2022-09-27T04:19:28;1.17;;;1.03;;
7961;SDS011;4026;43.652;24.906;2022-09-27T04:21:55;1.10;;;1.00;;
7961;SDS011;4026;43.652;24.906;2022-09-27T04:24:22;1.20;;;1.10;;
7961;SDS011;4026;43.652;24.906;2022-09-27T04:26:49;1.57;;;1.17;;
7961;SDS011;4026;43.652;24.906;2022-09-27T04:29:18;2.00;;;1.40;;
7961;SDS011;4026;43.652;24.906;2022-09-27T04:31:44;1.37;;;0.73;;
7961;SDS011;4026;43.652;24.906;2022-09-27T04:34:11;1.33;;;1.03;;
7961;SDS011;4026;43.652;24.906;2022-09-27T04:36:38;1.20;;;1.10;;
7961;SDS011;4026;43.652;24.906;2022-09-27T04:39:06;1.07;;;0.77;;
7961;SDS011;4026;43.652;24.906;2022-09-27T04:41:33;1.23;;;1.10;;
7961;SDS011;4026;43.652;24.906;2022-09-27T04:44:01;1.13;;;0.93;;
7961;SDS011;4026;43.652;24.906;2022-09-27T04:46:30;2.23;;;1.33;;
7961;SDS011;4026;43.652;24.906;2022-09-27T04:48:58;1.60;;;1.30;;
7961;SDS011;4026;43.652;24.906;2022-09-27T04:51:26;1.10;;;0.97;;
7961;SDS011;4026;43.652;24.906;2022-09-27T04:53:54;1.80;;;0.70;;
7961;SDS011;4026;43.652;24.906;2022-09-27T04:56:21;1.83;;;1.27;;
7961;SDS011;4026;43.652;24.906;2022-09-27T04:58:48;1.17;;;0.93;;
7961;SDS011;4026;43.652;24.906;2022-09-27T05:01:15;2.90;;;1.87;;
7961;SDS011;4026;43.652;24.906;2022-09-27T05:03:43;1.37;;;1.27;;
7961;SDS011;4026;43.652;24.906;2022-09-27T05:06:10;1.87;;;1.17;;
7961;SDS011;4026;43.652;24.906;2022-09-27T05:08:37;2.00;;;1.80;;
7961;SDS011;4026;43.652;24.906;2022-09-27T05:11:04;2.17;;;1.40;;
7961;SDS011;4026;43.652;24.906;2022-09-27T05:13:31;3.47;;;1.70;;
7961;SDS011;4026;43.652;24.906;2022-09-27T05:16:00;2.17;;;1.30;;
7961;SDS011;4026;43.652;24.906;2022-09-27T05:18:29;1.90;;;1.43;;
7961;SDS011;4026;43.652;24.906;2022-09-27T05:20:57;1.63;;;1.37;;
7961;SDS011;4026;43.652;24.906;2022-09-27T05:23:24;2.30;;;1.87;;
7961;SDS011;4026;43.652;24.906;2022-09-27T05:25:51;1.67;;;1.27;;
7961;SDS011;4026;43.652;24.906;2022-09-27T05:28:19;1.70;;;1.47;;
7961;SDS011;4026;43.652;24.906;2022-09-27T05:30:46;1.23;;;1.10;;
7961;SDS011;4026;43.652;24.906;2022-09-27T05:33:13;1.97;;;1.47;;
7961;SDS011;4026;43.652;24.906;2022-09-27T05:35:40;2.23;;;1.37;;
7961;SDS011;4026;43.652;24.906;2022-09-27T05:38:10;1.77;;;1.37;;
7961;SDS011;4026;43.652;24.906;2022-09-27T05:40:37;1.43;;;1.13;;
7961;SDS011;4026;43.652;24.906;2022-09-27T05:43:05;2.10;;;1.43;;
7961;SDS011;4026;43.652;24.906;2022-09-27T05:45:32;1.70;;;1.23;;
7961;SDS011;4026;43.652;24.906;2022-09-27T05:47:59;1.53;;;1.40;;
7961;SDS011;4026;43.652;24.906;2022-09-27T05:50:26;2.20;;;1.47;;
7961;SDS011;4026;43.652;24.906;2022-09-27T05:52:53;2.57;;;1.60;;
7961;SDS011;4026;43.652;24.906;2022-09-27T05:55:22;1.67;;;1.57;;
7961;SDS011;4026;43.652;24.906;2022-09-27T05:57:53;1.73;;;1.37;;
7961;SDS011;4026;43.652;24.906;2022-09-27T06:00:24;2.40;;;1.93;;
7961;SDS011;4026;43.652;24.906;2022-09-27T06:02:52;1.67;;;1.10;;
7961;SDS011;4026;43.652;24.906;2022-09-27T06:05:20;2.90;;;1.57;;
7961;SDS011;4026;43.652;24.906;2022-09-27T06:07:48;1.73;;;1.20;;
7961;SDS011;4026;43.652;24.906;2022-09-27T06:10:15;1.93;;;1.50;;
7961;SDS011;4026;43.652;24.906;2022-09-27T06:12:44;2.00;;;1.40;;
7961;SDS011;4026;43.652;24.906;2022-09-27T06:15:11;2.23;;;1.53;;
7961;SDS011;4026;43.652;24.906;2022-09-27T06:17:38;1.87;;;1.17;;
7961;SDS011;4026;43.652;24.906;2022-09-27T06:20:06;3.00;;;1.83;;
7961;SDS011;4026;43.652;24.906;2022-09-27T06:22:33;2.00;;;1.70;;
7961;SDS011;4026;43.652;24.906;2022-09-27T06:25:01;2.60;;;1.67;;
7961;SDS011;4026;43.652;24.906;2022-09-27T06:27:29;3.77;;;1.40;;
7961;SDS011;4026;43.652;24.906;2022-09-27T06:29:57;2.00;;;1.60;;
7961;SDS011;4026;43.652;24.906;2022-09-27T06:32:24;2.10;;;1.47;;
7961;SDS011;4026;43.652;24.906;2022-09-27T06:34:51;2.23;;;1.77;;
7961;SDS011;4026;43.652;24.906;2022-09-27T06:37:18;3.30;;;1.70;;
7961;SDS011;4026;43.652;24.906;2022-09-27T06:39:45;1.90;;;1.70;;
7961;SDS011;4026;43.652;24.906;2022-09-27T06:42:13;1.70;;;1.50;;
7961;SDS011;4026;43.652;24.906;2022-09-27T06:44:42;1.67;;;1.33;;
7961;SDS011;4026;43.652;24.906;2022-09-27T06:47:13;3.00;;;1.70;;
7961;SDS011;4026;43.652;24.906;2022-09-27T06:49:40;0.90;;;0.90;;
7961;SDS011;4026;43.652;24.906;2022-09-27T06:52:06;1.80;;;1.57;;
7961;SDS011;4026;43.652;24.906;2022-09-27T06:54:33;1.90;;;1.30;;
7961;SDS011;4026;43.652;24.906;2022-09-27T06:57:00;2.77;;;1.70;;
7961;SDS011;4026;43.652;24.906;2022-09-27T06:59:27;2.53;;;1.57;;
7961;SDS011;4026;43.652;24.906;2022-09-27T07:02:12;2.27;;;1.37;;
7961;SDS011;4026;43.652;24.906;2022-09-27T07:04:40;1.90;;;1.50;;
7961;SDS011;4026;43.652;24.906;2022-09-27T07:07:07;1.73;;;1.40;;
7961;SDS011;4026;43.652;24.906;2022-09-27T07:09:34;1.87;;;1.50;;
7961;SDS011;4026;43.652;24.906;2022-09-27T07:12:03;2.10;;;1.40;;
7961;SDS011;4026;43.652;24.906;2022-09-27T07:14:30;2.07;;;1.60;;
7961;SDS011;4026;43.652;24.906;2022-09-27T07:16:58;2.60;;;1.67;;
7961;SDS011;4026;43.652;24.906;2022-09-27T07:19:26;2.17;;;1.50;;
7961;SDS011;4026;43.652;24.906;2022-09-27T07:21:53;1.77;;;1.27;;
7961;SDS011;4026;43.652;24.906;2022-09-27T07:24:19;2.63;;;1.60;;
7961;SDS011;4026;43.652;24.906;2022-09-27T07:26:46;2.13;;;1.67;;
7961;SDS011;4026;43.652;24.906;2022-09-27T07:29:13;1.33;;;1.20;;
7961;SDS011;4026;43.652;24.906;2022-09-27T07:31:40;2.60;;;1.73;;
7961;SDS011;4026;43.652;24.906;2022-09-27T07:34:07;1.53;;;1.10;;
7961;SDS011;4026;43.652;24.906;2022-09-27T07:36:37;2.20;;;1.57;;
7961;SDS011;4026;43.652;24.906;2022-09-27T07:39:04;2.00;;;1.60;;
7961;SDS011;4026;43.652;24.906;2022-09-27T07:41:31;1.47;;;1.20;;
7961;SDS011;4026;43.652;24.906;2022-09-27T07:43:58;2.43;;;1.90;;
7961;SDS011;4026;43.652;24.906;2022-09-27T07:46:25;1.30;;;1.20;;
7961;SDS011;4026;43.652;24.906;2022-09-27T07:48:53;2.13;;;1.50;;
7961;SDS011;4026;43.652;24.906;2022-09-27T07:51:19;2.67;;;1.80;;
7961;SDS011;4026;43.652;24.906;2022-09-27T07:53:48;2.13;;;1.53;;
7961;SDS011;4026;43.652;24.906;2022-09-27T07:56:15;1.60;;;1.30;;
7961;SDS011;4026;43.652;24.906;2022-09-27T07:58:42;2.63;;;1.60;;
7961;SDS011;4026;43.652;24.906;2022-09-27T08:01:08;1.20;;;1.10;;
7961;SDS011;4026;43.652;24.906;2022-09-27T08:03:36;3.03;;;1.63;;
7961;SDS011;4026;43.652;24.906;2022-09-27T08:06:04;1.70;;;1.40;;
7961;SDS011;4026;43.652;24.906;2022-09-27T08:08:31;1.70;;;1.40;;
7961;SDS011;4026;43.652;24.906;2022-09-27T08:10:59;1.77;;;1.50;;
7961;SDS011;4026;43.652;24.906;2022-09-27T08:13:27;1.40;;;1.30;;
7961;SDS011;4026;43.652;24.906;2022-09-27T08:15:54;2.03;;;1.63;;
7961;SDS011;4026;43.652;24.906;2022-09-27T08:18:27;2.90;;;1.50;;
7961;SDS011;4026;43.652;24.906;2022-09-27T08:20:55;2.53;;;1.60;;
7961;SDS011;4026;43.652;24.906;2022-09-27T08:23:22;1.90;;;1.30;;
7961;SDS011;4026;43.652;24.906;2022-09-27T08:25:50;1.73;;;1.30;;
7961;SDS011;4026;43.652;24.906;2022-09-27T08:28:19;2.20;;;1.60;;
7961;SDS011;4026;43.652;24.906;2022-09-27T08:30:46;2.33;;;1.60;;
7961;SDS011;4026;43.652;24.906;2022-09-27T08:33:13;2.07;;;1.70;;
7961;SDS011;4026;43.652;24.906;2022-09-27T08:35:40;2.00;;;1.60;;
7961;SDS011;4026;43.652;24.906;2022-09-27T08:38:07;2.57;;;1.50;;
7961;SDS011;4026;43.652;24.906;2022-09-27T08:40:44;1.77;;;1.43;;
7961;SDS011;4026;43.652;24.906;2022-09-27T08:43:19;1.53;;;1.43;;
7961;SDS011;4026;43.652;24.906;2022-09-27T08:45:58;2.33;;;1.67;;
7961;SDS011;4026;43.652;24.906;2022-09-27T08:48:32;2.77;;;1.97;;
7961;SDS011;4026;43.652;24.906;2022-09-27T08:51:02;1.60;;;1.40;;
7961;SDS011;4026;43.652;24.906;2022-09-27T08:53:33;1.83;;;1.73;;
7961;SDS011;4026;43.652;24.906;2022-09-27T08:56:03;1.83;;;1.30;;
7961;SDS011;4026;43.652;24.906;2022-09-27T08:58:35;2.00;;;1.63;;
7961;SDS011;4026;43.652;24.906;2022-09-27T09:01:10;1.80;;;1.37;;
7961;SDS011;4026;43.652;24.906;2022-09-27T09:03:42;1.63;;;1.50;;
7961;SDS011;4026;43.652;24.906;2022-09-27T09:06:16;1.67;;;1.53;;
7961;SDS011;4026;43.652;24.906;2022-09-27T09:08:50;2.13;;;1.93;;
7961;SDS011;4026;43.652;24.906;2022-09-27T09:11:30;2.07;;;1.60;;
7961;SDS011;4026;43.652;24.906;2022-09-27T09:14:33;1.97;;;1.50;;
7961;SDS011;4026;43.652;24.906;2022-09-27T09:17:12;2.80;;;1.97;;
7961;SDS011;4026;43.652;24.906;2022-09-27T09:19:54;2.63;;;2.07;;
7961;SDS011;4026;43.652;24.906;2022-09-27T09:22:32;2.73;;;1.77;;
7961;SDS011;4026;43.652;24.906;2022-09-27T09:25:21;1.60;;;1.50;;
7961;SDS011;4026;43.652;24.906;2022-09-27T09:27:58;1.53;;;1.43;;
7961;SDS011;4026;43.652;24.906;2022-09-27T09:30:37;2.03;;;1.47;;
7961;SDS011;4026;43.652;24.906;2022-09-27T09:33:12;2.33;;;1.50;;
7961;SDS011;4026;43.652;24.906;2022-09-27T09:35:48;3.33;;;2.20;;
7961;SDS011;4026;43.652;24.906;2022-09-27T09:38:20;3.57;;;1.80;;
7961;SDS011;4026;43.652;24.906;2022-09-27T09:40:52;2.17;;;1.60;;
7961;SDS011;4026;43.652;24.906;2022-09-27T09:43:24;3.77;;;2.70;;
7961;SDS011;4026;43.652;24.906;2022-09-27T09:46:00;2.40;;;1.90;;
7961;SDS011;4026;43.652;24.906;2022-09-27T09:48:35;3.00;;;1.97;;
7961;SDS011;4026;43.652;24.906;2022-09-27T09:51:09;2.30;;;1.63;;
7961;SDS011;4026;43.652;24.906;2022-09-27T09:53:41;2.53;;;2.30;;
7961;SDS011;4026;43.652;24.906;2022-09-27T09:56:16;2.47;;;2.10;;
7961;SDS011;4026;43.652;24.906;2022-09-27T09:58:49;1.73;;;1.63;;
7961;SDS011;4026;43.652;24.906;2022-09-27T10:01:22;2.73;;;2.00;;
7961;SDS011;4026;43.652;24.906;2022-09-27T10:03:52;2.20;;;1.67;;
7961;SDS011;4026;43.652;24.906;2022-09-27T10:06:20;1.50;;;1.40;;
7961;SDS011;4026;43.652;24.906;2022-09-27T10:08:49;2.40;;;1.90;;
7961;SDS011;4026;43.652;24.906;2022-09-27T10:11:20;1.50;;;1.10;;
7961;SDS011;4026;43.652;24.906;2022-09-27T10:13:50;1.73;;;1.50;;
7961;SDS011;4026;43.652;24.906;2022-09-27T10:16:19;2.40;;;1.60;;
7961;SDS011;4026;43.652;24.906;2022-09-27T10:18:48;1.93;;;1.50;;
7961;SDS011;4026;43.652;24.906;2022-09-27T10:21:19;1.87;;;1.30;;
7961;SDS011;4026;43.652;24.906;2022-09-27T10:26:34;1.50;;;1.20;;
7961;SDS011;4026;43.652;24.906;2022-09-27T10:31:59;1.33;;;1.20;;
7961;SDS011;4026;43.652;24.906;2022-09-27T10:34:29;1.97;;;1.70;;
7961;SDS011;4026;43.652;24.906;2022-09-27T10:37:05;2.13;;;1.60;;
7961;SDS011;4026;43.652;24.906;2022-09-27T10:43:03;0.87;;;0.80;;
7961;SDS011;4026;43.652;24.906;2022-09-27T10:45:58;1.17;;;1.00;;
7961;SDS011;4026;43.652;24.906;2022-09-27T10:48:31;2.13;;;1.47;;
7961;SDS011;4026;43.652;24.906;2022-09-27T10:50:59;1.47;;;1.30;;
7961;SDS011;4026;43.652;24.906;2022-09-27T10:53:28;1.67;;;1.50;;
7961;SDS011;4026;43.652;24.906;2022-09-27T10:55:56;1.50;;;1.20;;
7961;SDS011;4026;43.652;24.906;2022-09-27T10:58:25;2.40;;;1.43;;
7961;SDS011;4026;43.652;24.906;2022-09-27T11:00:55;1.47;;;1.17;;
7961;SDS011;4026;43.652;24.906;2022-09-27T11:03:25;1.43;;;1.27;;
7961;SDS011;4026;43.652;24.906;2022-09-27T11:05:55;1.53;;;1.20;;
7961;SDS011;4026;43.652;24.906;2022-09-27T11:08:27;1.90;;;1.50;;
7961;SDS011;4026;43.652;24.906;2022-09-27T11:11:00;1.40;;;1.30;;
7961;SDS011;4026;43.652;24.906;2022-09-27T11:13:30;1.50;;;1.40;;
7961;SDS011;4026;43.652;24.906;2022-09-27T11:16:05;2.10;;;1.47;;
7961;SDS011;4026;43.652;24.906;2022-09-27T11:18:47;2.00;;;1.73;;
7961;SDS011;4026;43.652;24.906;2022-09-27T11:21:26;1.43;;;1.30;;
7961;SDS011;4026;43.652;24.906;2022-09-27T11:24:12;2.40;;;1.60;;
7961;SDS011;4026;43.652;24.906;2022-09-27T11:26:56;1.83;;;1.47;;
7961;SDS011;4026;43.652;24.906;2022-09-27T11:29:35;2.33;;;1.70;;
7961;SDS011;4026;43.652;24.906;2022-09-27T11:32:18;2.07;;;1.40;;
7961;SDS011;4026;43.652;24.906;2022-09-27T11:34:58;1.73;;;1.63;;
7961;SDS011;4026;43.652;24.906;2022-09-27T11:37:39;2.50;;;1.50;;
7961;SDS011;4026;43.652;24.906;2022-09-27T11:40:17;2.47;;;1.57;;
7961;SDS011;4026;43.652;24.906;2022-09-27T11:45:59;2.17;;;1.80;;
7961;SDS011;4026;43.652;24.906;2022-09-27T11:48:47;1.60;;;1.47;;
7961;SDS011;4026;43.652;24.906;2022-09-27T11:51:37;2.53;;;1.57;;
7961;SDS011;4026;43.652;24.906;2022-09-27T11:54:22;2.07;;;1.60;;
7961;SDS011;4026;43.652;24.906;2022-09-27T11:56:57;2.03;;;1.77;;
7961;SDS011;4026;43.652;24.906;2022-09-27T11:59:37;2.20;;;1.50;;
7961;SDS011;4026;43.652;24.906;2022-09-27T12:02:23;2.00;;;1.77;;
7961;SDS011;4026;43.652;24.906;2022-09-27T12:05:07;1.67;;;1.20;;
7961;SDS011;4026;43.652;24.906;2022-09-27T12:07:49;2.90;;;1.70;;
7961;SDS011;4026;43.652;24.906;2022-09-27T12:10:25;1.77;;;1.50;;
7961;SDS011;4026;43.652;24.906;2022-09-27T12:12:53;1.37;;;1.27;;
7961;SDS011;4026;43.652;24.906;2022-09-27T12:15:24;1.90;;;1.30;;
7961;SDS011;4026;43.652;24.906;2022-09-27T12:17:57;3.37;;;1.50;;
7961;SDS011;4026;43.652;24.906;2022-09-27T12:20:31;1.93;;;1.60;;
7961;SDS011;4026;43.652;24.906;2022-09-27T12:23:02;2.00;;;1.37;;
7961;SDS011;4026;43.652;24.906;2022-09-27T12:25:35;1.07;;;1.00;;
7961;SDS011;4026;43.652;24.906;2022-09-27T12:28:07;1.90;;;1.47;;
7961;SDS011;4026;43.652;24.906;2022-09-27T12:30:40;1.40;;;1.30;;
7961;SDS011;4026;43.652;24.906;2022-09-27T12:33:12;3.13;;;1.73;;
7961;SDS011;4026;43.652;24.906;2022-09-27T12:35:49;1.60;;;1.50;;
7961;SDS011;4026;43.652;24.906;2022-09-27T12:38:20;2.13;;;1.50;;
7961;SDS011;4026;43.652;24.906;2022-09-27T12:40:54;1.60;;;1.30;;
7961;SDS011;4026;43.652;24.906;2022-09-27T12:43:24;1.53;;;1.27;;
7961;SDS011;4026;43.652;24.906;2022-09-27T12:45:54;1.37;;;1.20;;
7961;SDS011;4026;43.652;24.906;2022-09-27T12:48:32;1.60;;;1.50;;
7961;SDS011;4026;43.652;24.906;2022-09-27T12:51:06;1.80;;;1.40;;
7961;SDS011;4026;43.652;24.906;2022-09-27T12:53:39;1.40;;;1.30;;
7961;SDS011;4026;43.652;24.906;2022-09-27T12:56:25;1.70;;;1.27;;
7961;SDS011;4026;43.652;24.906;2022-09-27T12:59:06;1.33;;;1.23;;
7961;SDS011;4026;43.652;24.906;2022-09-27T13:01:52;1.27;;;1.07;;
7961;SDS011;4026;43.652;24.906;2022-09-27T13:04:45;1.80;;;1.40;;
7961;SDS011;4026;43.652;24.906;2022-09-27T13:07:31;1.50;;;1.40;;
7961;SDS011;4026;43.652;24.906;2022-09-27T13:13:13;2.67;;;1.53;;
7961;SDS011;4026;43.652;24.906;2022-09-27T13:15:43;1.63;;;1.50;;
7961;SDS011;4026;43.652;24.906;2022-09-27T13:21:10;1.10;;;1.00;;
7961;SDS011;4026;43.652;24.906;2022-09-27T13:24:28;1.67;;;1.37;;
7961;SDS011;4026;43.652;24.906;2022-09-27T13:36:19;1.47;;;1.37;;
7961;SDS011;4026;43.652;24.906;2022-09-27T13:42:07;1.83;;;1.40;;
7961;SDS011;4026;43.652;24.906;2022-09-27T13:44:50;1.97;;;1.40;;
7961;SDS011;4026;43.652;24.906;2022-09-27T13:47:33;1.57;;;1.47;;
7961;SDS011;4026;43.652;24.906;2022-09-27T13:50:15;1.30;;;1.20;;
7961;SDS011;4026;43.652;24.906;2022-09-27T13:52:45;1.40;;;1.30;;
7961;SDS011;4026;43.652;24.906;2022-09-27T13:55:42;1.63;;;1.47;;
7961;SDS011;4026;43.652;24.906;2022-09-27T13:58:26;1.73;;;1.50;;
7961;SDS011;4026;43.652;24.906;2022-09-27T14:01:02;2.03;;;1.40;;
7961;SDS011;4026;43.652;24.906;2022-09-27T14:03:37;1.53;;;1.23;;
7961;SDS011;4026;43.652;24.906;2022-09-27T14:06:21;1.77;;;1.60;;
7961;SDS011;4026;43.652;24.906;2022-09-27T14:08:51;1.50;;;1.40;;
7961;SDS011;4026;43.652;24.906;2022-09-27T14:11:23;1.33;;;1.23;;
7961;SDS011;4026;43.652;24.906;2022-09-27T14:13:52;1.43;;;1.27;;
7961;SDS011;4026;43.652;24.906;2022-09-27T14:16:21;1.43;;;1.20;;
7961;SDS011;4026;43.652;24.906;2022-09-27T14:18:49;1.93;;;1.73;;
7961;SDS011;4026;43.652;24.906;2022-09-27T14:21:30;3.63;;;2.37;;
7961;SDS011;4026;43.652;24.906;2022-09-27T14:26:48;3.47;;;2.33;;
7961;SDS011;4026;43.652;24.906;2022-09-27T14:29:16;3.43;;;2.43;;
7961;SDS011;4026;43.652;24.906;2022-09-27T14:31:44;2.93;;;2.30;;
7961;SDS011;4026;43.652;24.906;2022-09-27T14:34:13;2.70;;;2.10;;
7961;SDS011;4026;43.652;24.906;2022-09-27T14:36:43;3.10;;;2.10;;
7961;SDS011;4026;43.652;24.906;2022-09-27T14:39:28;3.60;;;2.33;;
7961;SDS011;4026;43.652;24.906;2022-09-27T14:41:57;3.13;;;2.20;;
7961;SDS011;4026;43.652;24.906;2022-09-27T14:44:25;3.70;;;2.40;;
7961;SDS011;4026;43.652;24.906;2022-09-27T14:47:08;3.80;;;2.53;;
7961;SDS011;4026;43.652;24.906;2022-09-27T14:49:38;2.27;;;1.73;;
7961;SDS011;4026;43.652;24.906;2022-09-27T14:52:16;2.93;;;2.13;;
7961;SDS011;4026;43.652;24.906;2022-09-27T14:54:54;3.53;;;2.17;;
7961;SDS011;4026;43.652;24.906;2022-09-27T14:57:25;2.60;;;2.20;;
7961;SDS011;4026;43.652;24.906;2022-09-27T14:59:54;2.93;;;2.20;;
7961;SDS011;4026;43.652;24.906;2022-09-27T15:02:22;2.27;;;2.00;;
7961;SDS011;4026;43.652;24.906;2022-09-27T15:04:51;2.63;;;2.23;;
7961;SDS011;4026;43.652;24.906;2022-09-27T15:07:20;2.87;;;2.37;;
7961;SDS011;4026;43.652;24.906;2022-09-27T15:09:48;2.67;;;2.27;;
7961;SDS011;4026;43.652;24.906;2022-09-27T15:12:18;2.10;;;1.63;;
7961;SDS011;4026;43.652;24.906;2022-09-27T15:14:50;2.57;;;2.20;;
7961;SDS011;4026;43.652;24.906;2022-09-27T15:17:23;3.40;;;2.50;;
7961;SDS011;4026;43.652;24.906;2022-09-27T15:19:57;3.57;;;2.03;;
7961;SDS011;4026;43.652;24.906;2022-09-27T15:22:32;2.53;;;2.20;;
7961;SDS011;4026;43.652;24.906;2022-09-27T15:25:06;4.43;;;1.87;;
7961;SDS011;4026;43.652;24.906;2022-09-27T15:27:45;3.03;;;2.20;;
7961;SDS011;4026;43.652;24.906;2022-09-27T15:30:17;3.60;;;2.07;;
7961;SDS011;4026;43.652;24.906;2022-09-27T15:32:49;2.27;;;1.80;;
7961;SDS011;4026;43.652;24.906;2022-09-27T15:35:24;3.00;;;2.30;;
7961;SDS011;4026;43.652;24.906;2022-09-27T15:40:59;2.63;;;1.83;;
7961;SDS011;4026;43.652;24.906;2022-09-27T15:43:28;3.13;;;2.03;;
7961;SDS011;4026;43.652;24.906;2022-09-27T15:45:57;2.77;;;1.87;;
7961;SDS011;4026;43.652;24.906;2022-09-27T15:48:27;2.90;;;2.10;;
7961;SDS011;4026;43.652;24.906;2022-09-27T15:50:56;3.13;;;2.30;;
7961;SDS011;4026;43.652;24.906;2022-09-27T15:53:43;2.37;;;1.93;;
7961;SDS011;4026;43.652;24.906;2022-09-27T15:56:11;3.30;;;2.33;;
7961;SDS011;4026;43.652;24.906;2022-09-27T15:58:40;3.33;;;2.40;;
7961;SDS011;4026;43.652;24.906;2022-09-27T16:01:18;3.00;;;2.00;;
7961;SDS011;4026;43.652;24.906;2022-09-27T16:03:46;3.10;;;2.40;;
7961;SDS011;4026;43.652;24.906;2022-09-27T16:06:14;3.97;;;2.23;;
7961;SDS011;4026;43.652;24.906;2022-09-27T16:08:43;2.60;;;1.90;;